Time;durP1;ratioP1;P1;durP2;ratioP2;P2;SDS_P1;SDS_P2;PMS_P1;PMS_P2;Temp;Humidity;BMP_temperature;BMP_pressure;BME280_temperature;BME280_humidity;BME280_pressure;Samples;Min_cycle;Max_cycle;Signal;HPM_P1;HPM_P2
2023/05/04 00:00:52;;;;;;;3.87;2.63;;;;;;;10.12;51.76;99530.75;5074648;28;41556;-80
2023/05/04 00:03:19;;;;;;;3.00;2.70;;;;;;;10.03;51.99;99518.81;5075350;28;40809;-79
2023/05/04 00:05:47;;;;;;;4.30;2.10;;;;;;;9.74;51.76;99485.03;5093103;28;42556;-79
2023/05/04 00:08:15;;;;;;;2.40;2.20;;;;;;;9.97;51.80;99531.50;5075519;28;42600;-79
2023/05/04 00:10:44;;;;;;;2.53;2.33;;;;;;;9.85;51.55;99518.88;5074842;28;43049;-79
2023/05/04 00:13:11;;;;;;;2.40;2.20;;;;;;;9.89;51.83;99525.75;5075052;28;39851;-79
2023/05/04 00:15:39;;;;;;;2.33;2.13;;;;;;;9.85;51.71;99529.47;5073713;28;41727;-79
2023/05/04 00:18:07;;;;;;;2.93;2.13;;;;;;;9.79;51.82;99530.59;5074874;28;43775;-79
2023/05/04 00:20:34;;;;;;;2.57;2.37;;;;;;;9.77;52.21;99526.34;5074492;28;42300;-78
2023/05/04 00:23:02;;;;;;;2.37;2.20;;;;;;;9.46;52.20;99485.50;5057915;28;38649;-79
2023/05/04 00:25:29;;;;;;;2.67;2.47;;;;;;;9.68;52.05;99517.91;5057203;28;41811;-79
2023/05/04 00:27:59;;;;;;;2.70;2.50;;;;;;;9.65;52.43;99504.81;5058073;28;41365;-78
2023/05/04 00:30:26;;;;;;;2.57;2.37;;;;;;;9.62;52.17;99515.56;5057618;28;41005;-78
2023/05/04 00:32:54;;;;;;;3.13;2.83;;;;;;;9.58;52.16;99506.06;5075051;28;40273;-79
2023/05/04 00:35:21;;;;;;;3.07;2.73;;;;;;;9.50;52.19;99502.06;5092293;28;41633;-80
2023/05/04 00:37:50;;;;;;;2.47;2.27;;;;;;;9.49;52.42;99509.16;5074917;28;43003;-79
2023/05/04 00:40:17;;;;;;;3.17;2.73;;;;;;;9.45;52.55;99507.56;5057781;28;41252;-79
2023/05/04 00:42:45;;;;;;;4.03;2.60;;;;;;;9.38;52.48;99503.50;5057329;28;39715;-78
2023/05/04 00:45:15;;;;;;;2.80;2.60;;;;;;;9.27;52.70;99495.22;5074467;28;42637;-80
2023/05/04 00:47:43;;;;;;;2.60;2.40;;;;;;;9.32;52.68;99503.78;5057660;28;41865;-79
2023/05/04 00:50:12;;;;;;;2.77;2.30;;;;;;;9.27;52.38;99508.44;5074263;28;42382;-78
2023/05/04 00:52:41;;;;;;;4.43;2.60;;;;;;;9.14;52.45;99494.09;5074412;28;39893;-79
2023/05/04 00:55:10;;;;;;;3.00;2.77;;;;;;;9.19;52.68;99518.50;5057252;28;41066;-79
2023/05/04 00:57:39;;;;;;;2.83;2.60;;;;;;;9.14;53.21;99521.38;5057245;28;41632;-79
2023/05/04 01:00:09;;;;;;;4.33;3.30;;;;;;;9.12;54.34;99509.16;5057194;28;42158;-79
2023/05/04 01:02:38;;;;;;;5.00;3.67;;;;;;;9.10;55.32;99503.06;5074737;28;40404;-79
2023/05/04 01:05:07;;;;;;;6.33;3.63;;;;;;;9.08;55.62;99504.94;5057110;28;40980;-80
2023/05/04 01:07:39;;;;;;;4.30;3.60;;;;;;;9.08;56.58;99494.34;5074159;28;42670;-79
2023/05/04 01:10:12;;;;;;;4.40;4.00;;;;;;;9.06;56.34;99496.22;5056979;28;41077;-79
2023/05/04 01:12:42;;;;;;;4.23;3.50;;;;;;;9.05;56.55;99495.34;5089182;28;39748;-78
2023/05/04 01:15:12;;;;;;;4.27;3.80;;;;;;;9.04;56.61;99501.56;5056571;28;42496;-79
2023/05/04 01:17:41;;;;;;;4.77;3.80;;;;;;;9.02;57.09;99496.34;5056629;28;41781;-78
2023/05/04 01:20:10;;;;;;;5.40;3.90;;;;;;;9.02;57.36;99502.59;5073917;28;42275;-79
2023/05/04 01:22:39;;;;;;;6.53;4.50;;;;;;;8.99;57.95;99496.50;5057027;28;38533;-78
2023/05/04 01:25:08;;;;;;;5.80;4.30;;;;;;;8.99;58.56;99491.22;5056866;28;40775;-78
2023/05/04 01:27:43;;;;;;;4.90;4.40;;;;;;;8.99;58.69;99496.50;5056717;28;42057;-79
2023/05/04 01:30:19;;;;;;;4.50;4.10;;;;;;;8.87;58.34;99475.94;5056803;28;42368;-79
2023/05/04 01:32:47;;;;;;;4.70;4.30;;;;;;;8.96;58.43;99490.50;5057122;28;39968;-79
2023/05/04 01:35:15;;;;;;;4.53;3.83;;;;;;;8.94;58.32;99501.13;5056495;28;40605;-80
2023/05/04 01:37:45;;;;;;;5.27;4.30;;;;;;;8.90;57.78;99499.53;5056681;28;41439;-79
2023/05/04 01:40:12;;;;;;;5.30;3.90;;;;;;;8.90;57.96;99501.38;5056434;28;41261;-80
2023/05/04 01:42:40;;;;;;;3.90;3.53;;;;;;;8.88;57.30;99498.78;5056540;28;41429;-80
2023/05/04 01:45:09;;;;;;;3.67;3.00;;;;;;;8.86;57.27;99505.91;5056461;28;41477;-78
2023/05/04 01:47:37;;;;;;;4.40;4.00;;;;;;;8.84;58.25;99493.69;5073542;28;43108;-78
2023/05/04 01:50:06;;;;;;;5.17;4.40;;;;;;;8.81;58.78;99484.13;5073281;28;42864;-77
2023/05/04 01:52:34;;;;;;;4.83;4.43;;;;;;;8.79;59.02;99493.03;5073318;28;40006;-78
2023/05/04 01:55:03;;;;;;;4.60;4.20;;;;;;;8.77;58.64;99490.50;5056686;28;40674;-78
2023/05/04 01:57:33;;;;;;;4.83;4.07;;;;;;;8.62;58.47;99472.69;5056511;28;43018;-79
2023/05/04 02:00:01;;;;;;;4.13;3.63;;;;;;;8.72;58.03;99492.47;5073132;28;42491;-78
2023/05/04 02:02:28;;;;;;;4.37;3.97;;;;;;;8.60;57.79;99483.31;5056181;28;39538;-78
2023/05/04 02:04:56;;;;;;;4.10;3.70;;;;;;;8.66;58.29;99492.72;5055917;28;40791;-78
2023/05/04 02:07:24;;;;;;;4.27;3.93;;;;;;;8.63;58.00;99492.88;5056252;28;42061;-78
2023/05/04 02:09:51;;;;;;;3.83;3.53;;;;;;;8.59;58.83;99486.03;5073002;28;42642;-79
2023/05/04 02:12:20;;;;;;;4.30;3.70;;;;;;;8.59;58.80;99488.66;5073130;28;40126;-78
2023/05/04 02:14:48;;;;;;;4.83;4.30;;;;;;;8.57;59.15;99493.13;5090779;28;41921;-79
2023/05/04 02:17:16;;;;;;;4.50;4.10;;;;;;;8.42;59.08;99473.56;5072471;28;42824;-78
2023/05/04 02:19:43;;;;;;;6.27;4.03;;;;;;;8.49;59.29;99490.00;5056086;28;40814;-78
2023/05/04 02:22:11;;;;;;;4.73;4.23;;;;;;;8.45;59.37;99483.97;5056399;28;40374;-79
2023/05/04 02:24:39;;;;;;;4.47;4.07;;;;;;;8.39;59.74;99475.50;5072796;28;42609;-78
2023/05/04 02:27:07;;;;;;;6.77;4.40;;;;;;;8.35;60.60;99476.53;5055945;28;43235;-78
2023/05/04 02:29:37;;;;;;;5.43;4.93;;;;;;;8.20;60.71;99468.31;5055671;28;41703;-78
2023/05/04 02:32:05;;;;;;;6.83;5.00;;;;;;;8.32;61.83;99485.44;5090850;28;41601;-78
2023/05/04 02:34:34;;;;;;;6.13;4.90;;;;;;;8.29;61.05;99483.75;5072513;28;41484;-78
2023/05/04 02:37:02;;;;;;;5.37;4.87;;;;;;;8.28;62.21;99482.03;5072660;28;42801;-78
2023/05/04 02:39:29;;;;;;;7.10;5.07;;;;;;;8.26;63.45;99478.63;5058911;28;41194;-77
2023/05/04 02:41:57;;;;;;;5.70;4.97;;;;;;;8.26;62.93;99477.78;5076267;28;38919;-78
2023/05/04 02:44:24;;;;;;;7.53;5.07;;;;;;;8.24;63.74;99479.63;5059044;28;40559;-79
2023/05/04 02:46:53;;;;;;;6.20;5.03;;;;;;;8.24;64.26;99475.19;5076138;28;42715;-78
2023/05/04 02:49:22;;;;;;;6.93;5.23;;;;;;;8.22;63.94;99482.31;5076478;28;41890;-78
2023/05/04 02:51:51;;;;;;;5.57;4.97;;;;;;;8.21;63.97;99485.88;5059203;28;38826;-78
2023/05/04 02:54:19;;;;;;;6.97;5.00;;;;;;;8.10;63.68;99464.38;5093868;28;42748;-79
2023/05/04 02:56:46;;;;;;;7.40;5.53;;;;;;;8.15;64.50;99475.59;5075949;28;42796;-78
2023/05/04 02:59:14;;;;;;;7.43;4.90;;;;;;;8.19;64.28;99477.16;5059067;28;43718;-79
2023/05/04 03:01:42;;;;;;;6.67;5.03;;;;;;;8.19;64.27;99479.78;5076251;28;40448;-78
2023/05/04 03:04:11;;;;;;;6.47;5.13;;;;;;;8.16;64.32;99482.56;5058908;28;40641;-78
2023/05/04 03:06:38;;;;;;;5.40;4.83;;;;;;;8.18;63.88;99491.28;5058644;28;42104;-78
2023/05/04 03:09:07;;;;;;;6.13;4.37;;;;;;;8.17;63.50;99488.69;5058668;28;41431;-78
2023/05/04 03:11:35;;;;;;;6.23;5.53;;;;;;;8.15;64.05;99491.44;5075371;28;40468;-79
2023/05/04 03:14:02;;;;;;;5.13;4.67;;;;;;;8.13;63.56;99482.72;5075783;28;41890;-78
2023/05/04 03:16:30;;;;;;;6.30;4.70;;;;;;;8.01;63.03;99467.41;5057894;28;43023;-78
2023/05/04 03:18:57;;;;;;;5.83;4.87;;;;;;;8.09;63.14;99486.41;5075464;28;42110;-79
2023/05/04 03:21:27;;;;;;;5.57;4.80;;;;;;;8.03;62.96;99476.13;5058782;28;39836;-78
2023/05/04 03:23:54;;;;;;;5.73;5.10;;;;;;;8.02;63.49;99490.22;5075726;28;41867;-78
2023/05/04 03:26:22;;;;;;;5.93;5.43;;;;;;;7.95;63.48;99472.94;5093410;28;42845;-78
2023/05/04 03:28:50;;;;;;;5.13;4.63;;;;;;;7.95;63.26;99472.94;5058681;28;40960;-78
2023/05/04 03:31:18;;;;;;;5.40;4.90;;;;;;;7.91;62.93;99471.34;5058660;28;40366;-78
2023/05/04 03:33:50;;;;;;;5.87;4.60;;;;;;;7.89;63.14;99473.19;5072563;28;42674;-78
2023/05/04 03:36:17;;;;;;;6.23;4.77;;;;;;;7.74;62.66;99463.28;5058345;28;42810;-80
2023/05/04 03:38:47;;;;;;;5.80;4.90;;;;;;;7.84;63.00;99476.00;5075475;28;42379;-79
2023/05/04 03:41:15;;;;;;;6.10;5.00;;;;;;;7.82;63.08;99477.00;5074817;28;40832;-79
2023/05/04 03:43:42;;;;;;;4.97;4.37;;;;;;;7.79;63.31;99471.88;5075077;28;40065;-79
2023/05/04 03:46:11;;;;;;;6.50;4.80;;;;;;;7.71;62.90;99463.41;5058268;28;42881;-79
2023/05/04 03:48:39;;;;;;;5.97;4.90;;;;;;;7.71;62.72;99471.31;5075101;28;42151;-80
2023/05/04 03:51:10;;;;;;;7.03;4.77;;;;;;;7.62;62.80;99463.78;5058208;28;38880;-79
2023/05/04 03:53:38;;;;;;;5.20;4.57;;;;;;;7.71;62.84;99480.06;5058017;28;41120;-80
2023/05/04 03:56:08;;;;;;;7.43;4.83;;;;;;;7.68;63.00;99485.47;5058118;28;43180;-79
2023/05/04 03:58:35;;;;;;;5.03;4.63;;;;;;;7.69;63.75;99481.91;5074908;28;43186;-79
2023/05/04 04:01:05;;;;;;;7.40;5.33;;;;;;;7.70;64.23;99488.03;5057884;28;38704;-79
2023/05/04 04:03:35;;;;;;;5.77;5.17;;;;;;;7.71;65.25;99480.06;5057734;28;40581;-79
2023/05/04 04:06:03;;;;;;;6.27;5.30;;;;;;;7.73;64.86;99482.66;5075029;28;41820;-80
2023/05/04 04:08:31;;;;;;;5.93;5.30;;;;;;;7.71;64.95;99479.22;5058083;28;41048;-79
2023/05/04 04:10:59;;;;;;;7.97;5.70;;;;;;;7.77;65.35;99476.34;5075166;28;41005;-79
2023/05/04 04:13:28;;;;;;;8.00;5.43;;;;;;;7.79;65.26;99477.16;5058512;28;40502;-79
2023/05/04 04:15:55;;;;;;;7.87;4.73;;;;;;;7.83;66.14;99478.72;5057763;28;41855;-79
2023/05/04 04:18:23;;;;;;;6.50;4.90;;;;;;;7.87;65.38;99480.31;5072077;28;43149;-79
2023/05/04 04:20:51;;;;;;;7.53;5.03;;;;;;;7.90;65.13;99477.56;5058078;28;38878;-79
2023/05/04 04:23:20;;;;;;;7.87;4.77;;;;;;;7.98;64.82;99483.34;5057392;28;40906;-79
2023/05/04 04:25:48;;;;;;;5.30;4.70;;;;;;;8.01;65.23;99482.38;5074238;28;43071;-79
2023/05/04 04:28:16;;;;;;;7.27;4.77;;;;;;;8.08;64.87;99484.69;5057889;28;42293;-79
2023/05/04 04:30:45;;;;;;;7.43;5.03;;;;;;;8.15;64.61;99490.56;5057440;28;39981;-79
2023/05/04 04:33:13;;;;;;;6.03;4.83;;;;;;;8.21;64.18;99498.22;5057557;28;40774;-79
2023/05/04 04:35:41;;;;;;;8.07;5.03;;;;;;;8.30;64.70;99488.09;5058194;28;42907;-79
2023/05/04 04:38:09;;;;;;;5.53;4.90;;;;;;;8.39;64.36;99491.31;5093077;28;43422;-79
2023/05/04 04:40:36;;;;;;;5.47;4.73;;;;;;;8.50;64.13;99491.72;5057952;28;39330;-79
2023/05/04 04:43:04;;;;;;;6.37;5.77;;;;;;;8.59;64.00;99486.03;5092724;28;42300;-80
2023/05/04 04:45:32;;;;;;;7.13;5.53;;;;;;;8.66;63.21;99487.44;5057176;28;42929;-78
2023/05/04 04:48:02;;;;;;;5.53;4.97;;;;;;;8.78;63.23;99486.06;5057817;28;42646;-80
2023/05/04 04:51:01;;;;;;;6.20;5.60;;;;;;;8.86;63.88;99487.44;5074007;28;40066;-79
2023/05/04 04:53:28;;;;;;;6.07;5.37;;;;;;;8.93;63.78;99496.78;5074262;28;41572;-79
2023/05/04 04:55:55;;;;;;;6.17;5.10;;;;;;;9.00;63.15;99486.81;5074093;28;41962;-82
2023/05/04 04:58:23;;;;;;;7.00;5.30;;;;;;;9.08;63.16;99484.66;5073468;28;42494;-78
2023/05/04 05:00:51;;;;;;;7.57;5.27;;;;;;;9.23;62.80;99491.88;5056535;28;41196;-78
2023/05/04 05:03:20;;;;;;;7.10;5.13;;;;;;;9.35;62.42;99495.72;5073941;28;40864;-79
2023/05/04 05:05:47;;;;;;;9.23;5.90;;;;;;;9.47;62.39;99492.50;5091953;28;43831;-78
2023/05/04 05:08:15;;;;;;;8.20;5.50;;;;;;;9.60;62.38;99498.91;5073820;28;42267;-78
2023/05/04 05:10:43;;;;;;;7.53;6.00;;;;;;;9.70;62.42;99491.38;5092018;28;40934;-78
2023/05/04 05:13:11;;;;;;;8.27;5.43;;;;;;;9.82;62.04;99497.84;5073524;28;42175;-78
2023/05/04 05:15:38;;;;;;;7.93;6.27;;;;;;;9.93;61.72;99498.19;5056823;28;41665;-78
2023/05/04 05:18:06;;;;;;;10.03;5.50;;;;;;;10.00;61.17;99495.16;5056448;28;42078;-78
2023/05/04 05:20:35;;;;;;;6.63;5.53;;;;;;;10.11;61.02;99494.63;5091646;28;40079;-78
2023/05/04 05:23:04;;;;;;;6.47;5.40;;;;;;;10.15;60.46;99498.81;5073518;28;41980;-79
2023/05/04 05:25:32;;;;;;;6.30;4.70;;;;;;;10.26;60.56;99493.84;5073287;28;43631;-77
2023/05/04 05:31:30;;;;;;;5.07;4.57;;;;;;;10.51;60.50;99497.91;5056616;28;40064;-78
2023/05/04 05:33:58;;;;;;;6.40;5.03;;;;;;;10.48;59.92;99483.03;5073476;28;41885;-78
2023/05/04 05:36:27;;;;;;;7.57;5.77;;;;;;;10.75;60.10;99512.53;5073633;28;43367;-79
2023/05/04 05:38:54;;;;;;;7.83;5.57;;;;;;;10.85;59.95;99508.44;5073242;28;42036;-80
2023/05/04 05:41:22;;;;;;;6.50;5.10;;;;;;;10.87;59.26;99498.63;5056283;28;39141;-79
2023/05/04 05:43:50;;;;;;;6.27;5.67;;;;;;;11.13;59.29;99519.25;5039579;28;41395;-79
2023/05/04 05:46:18;;;;;;;6.30;5.50;;;;;;;11.32;59.05;99507.66;5056177;28;44592;-79
2023/05/04 05:48:45;;;;;;;5.90;5.33;;;;;;;11.40;58.88;99501.00;5056212;28;42074;-80
2023/05/04 05:51:13;;;;;;;7.07;5.67;;;;;;;11.54;58.12;99516.13;5056280;28;41500;-79
2023/05/04 05:53:43;;;;;;;8.03;5.20;;;;;;;11.71;58.65;99525.81;5056916;28;41885;-79
2023/05/04 05:56:11;;;;;;;6.60;5.90;;;;;;;11.84;58.01;99525.06;5056507;28;41658;-79
2023/05/04 05:58:39;;;;;;;5.73;5.23;;;;;;;11.97;57.55;99521.72;5056324;28;41146;-80
2023/05/04 06:01:07;;;;;;;6.53;5.10;;;;;;;12.14;57.24;99525.09;5056405;28;39554;-80
2023/05/04 06:03:34;;;;;;;7.17;5.60;;;;;;;12.09;56.86;99510.38;5072970;28;41435;-79
2023/05/04 06:06:02;;;;;;;7.40;5.73;;;;;;;12.33;56.75;99527.53;5073026;28;43996;-79
2023/05/04 06:08:30;;;;;;;5.83;5.27;;;;;;;12.45;56.33;99529.47;5056087;28;42392;-80
2023/05/04 06:10:59;;;;;;;8.33;5.70;;;;;;;12.56;56.02;99527.03;5072753;28;38910;-79
2023/05/04 06:13:26;;;;;;;8.03;5.87;;;;;;;12.71;55.60;99521.72;5074137;28;40714;-80
2023/05/04 06:15:55;;;;;;;8.33;5.30;;;;;;;12.86;56.19;99512.81;5076304;28;41630;-80
2023/05/04 06:18:23;;;;;;;6.70;5.27;;;;;;;13.14;56.09;99519.94;5073814;28;43032;-80
2023/05/04 06:20:58;;;;;;;5.60;5.00;;;;;;;13.30;55.60;99508.28;5076562;28;38997;-80
2023/05/04 06:24:12;;;;;;;6.30;5.67;;;;;;;13.62;54.72;99523.97;5059439;28;41062;-79
2023/05/04 06:26:41;;;;;;;6.10;5.27;;;;;;;13.86;54.14;99527.72;5059305;28;43016;-81
2023/05/04 06:29:09;;;;;;;6.03;5.43;;;;;;;14.25;53.39;99520.72;5059746;28;41147;-81
2023/05/04 06:31:36;;;;;;;5.93;5.20;;;;;;;14.87;53.06;99504.94;5076673;28;39898;-81
2023/05/04 06:34:04;;;;;;;5.83;5.03;;;;;;;15.63;51.09;99531.56;5059707;28;42140;-79
2023/05/04 06:36:31;;;;;;;7.03;4.97;;;;;;;15.96;50.55;99528.22;5094421;28;43735;-79
2023/05/04 06:38:59;;;;;;;4.93;4.30;;;;;;;16.00;50.91;99530.56;5059053;28;41257;-79
2023/05/04 06:41:26;;;;;;;5.77;4.70;;;;;;;15.93;50.09;99523.97;5058825;28;39644;-79
2023/05/04 06:43:55;;;;;;;9.00;5.27;;;;;;;15.96;49.81;99534.41;5077319;28;41790;-79
2023/05/04 06:46:23;;;;;;;7.50;4.90;;;;;;;15.95;49.09;99527.38;5058884;28;42282;-79
2023/05/04 06:48:51;;;;;;;6.43;5.13;;;;;;;16.11;49.60;99543.97;5077075;28;42547;-79
2023/05/04 06:51:19;;;;;;;5.53;4.77;;;;;;;16.19;49.76;99537.22;5058875;28;38684;-78
2023/05/04 06:53:47;;;;;;;6.03;5.43;;;;;;;16.28;50.16;99542.72;5075768;28;41720;-79
2023/05/04 06:56:15;;;;;;;7.60;4.67;;;;;;;16.41;49.78;99540.84;5075378;28;41498;-79
2023/05/04 06:58:43;;;;;;;7.43;5.77;;;;;;;16.54;50.21;99540.75;5059024;28;42534;-79
2023/05/04 07:01:12;;;;;;;7.57;5.80;;;;;;;16.66;49.62;99542.53;5076114;28;40931;-79
2023/05/04 07:03:40;;;;;;;6.60;5.23;;;;;;;16.78;49.45;99544.25;5075651;28;41907;-78
2023/05/04 07:06:08;;;;;;;6.87;5.53;;;;;;;16.96;48.42;99544.66;5058468;28;42916;-79
2023/05/04 07:08:36;;;;;;;7.87;5.07;;;;;;;17.07;47.71;99554.50;5058484;28;41253;-79
2023/05/04 07:11:05;;;;;;;6.00;5.13;;;;;;;17.17;48.45;99545.66;5075542;28;40826;-79
2023/05/04 07:13:32;;;;;;;7.10;5.00;;;;;;;17.30;48.36;99545.56;5075518;28;40797;-78
2023/05/04 07:16:00;;;;;;;6.77;5.77;;;;;;;17.41;46.98;99550.91;5075032;28;42936;-79
2023/05/04 07:18:30;;;;;;;6.30;5.67;;;;;;;17.74;48.08;99549.19;5090696;28;43181;-79
2023/05/04 07:20:57;;;;;;;6.07;5.47;;;;;;;17.98;46.17;99552.56;5075434;28;40866;-79
2023/05/04 07:23:25;;;;;;;7.97;6.13;;;;;;;18.25;44.77;99555.66;5093170;28;42543;-78
2023/05/04 07:25:53;;;;;;;6.50;5.27;;;;;;;18.76;43.93;99560.34;5058469;28;41785;-79
2023/05/04 07:28:21;;;;;;;5.30;4.80;;;;;;;19.10;45.01;99541.31;5093142;28;42282;-79
2023/05/04 07:30:49;;;;;;;5.60;5.10;;;;;;;19.43;43.05;99570.59;5058329;28;40983;-79
2023/05/04 07:33:16;;;;;;;8.70;6.07;;;;;;;19.48;43.70;99556.78;5093551;28;42684;-78
2023/05/04 07:35:46;;;;;;;5.47;4.30;;;;;;;19.46;43.26;99556.91;5093076;28;42775;-79
2023/05/04 07:38:14;;;;;;;8.83;5.00;;;;;;;19.47;43.18;99560.44;5075240;28;41508;-80
2023/05/04 07:40:42;;;;;;;7.33;5.23;;;;;;;19.54;42.89;99557.09;5075121;28;40065;-79
2023/05/04 07:43:09;;;;;;;6.27;5.40;;;;;;;19.59;42.54;99540.59;5093551;28;41778;-79
2023/05/04 07:45:37;;;;;;;7.87;5.30;;;;;;;20.04;43.72;99549.88;5075036;28;43037;-78
2023/05/04 07:48:05;;;;;;;6.83;4.77;;;;;;;20.49;43.08;99551.25;5075001;28;43005;-79
2023/05/04 07:50:33;;;;;;;7.10;5.10;;;;;;;20.65;40.49;99551.50;5057899;28;40455;-79
2023/05/04 07:53:02;;;;;;;5.90;5.10;;;;;;;20.69;39.59;99550.22;5074836;28;41157;-79
2023/05/04 07:55:30;;;;;;;6.57;5.27;;;;;;;21.06;39.81;99564.63;5074909;28;42740;-79
2023/05/04 07:57:58;;;;;;;6.40;5.40;;;;;;;21.48;40.40;99553.50;5075006;28;42285;-79
2023/05/04 08:00:26;;;;;;;7.47;5.27;;;;;;;21.72;38.58;99556.50;5074721;28;39210;-79
2023/05/04 08:02:54;;;;;;;5.73;4.70;;;;;;;21.99;40.39;99546.72;5075129;28;41904;-79
2023/05/04 08:05:22;;;;;;;7.67;5.03;;;;;;;22.11;38.48;99556.31;5074962;28;43000;-79
2023/05/04 08:07:50;;;;;;;7.07;5.40;;;;;;;22.24;36.68;99567.59;5057603;28;41457;-79
2023/05/04 08:10:19;;;;;;;6.67;5.67;;;;;;;22.45;36.43;99567.28;5057547;28;40035;-79
2023/05/04 08:12:47;;;;;;;8.47;5.47;;;;;;;22.81;36.58;99566.28;5074982;28;42776;-80
2023/05/04 08:15:15;;;;;;;10.17;6.27;;;;;;;22.91;35.82;99560.78;5074532;28;43660;-80
2023/05/04 08:17:42;;;;;;;8.43;6.53;;;;;;;22.90;35.48;99575.28;5074230;28;41490;-80
2023/05/04 08:20:11;;;;;;;6.10;5.30;;;;;;;22.95;37.47;99551.38;5057549;28;40023;-79
2023/05/04 08:22:38;;;;;;;5.70;5.20;;;;;;;23.07;35.77;99555.50;5074428;28;40636;-80
2023/05/04 08:25:08;;;;;;;7.13;5.10;;;;;;;23.65;36.74;99544.03;5057185;28;42040;-79
2023/05/04 08:27:37;;;;;;;8.00;5.93;;;;;;;24.62;34.41;99568.66;5074336;28;42294;-79
2023/05/04 08:30:06;;;;;;;5.90;5.20;;;;;;;25.28;32.79;99573.06;5092226;28;40039;-79
2023/05/04 08:32:34;;;;;;;5.83;4.83;;;;;;;25.84;32.53;99568.50;5057488;28;40317;-79
2023/05/04 08:35:02;;;;;;;7.07;5.30;;;;;;;26.42;32.87;99567.22;5056866;28;41521;-80
2023/05/04 08:37:29;;;;;;;6.80;5.83;;;;;;;27.21;30.90;99567.78;5057062;28;42261;-82
2023/05/04 08:39:57;;;;;;;6.93;6.03;;;;;;;27.75;28.51;99582.03;5074191;28;39796;-80
2023/05/04 08:42:29;;;;;;;7.20;5.63;;;;;;;28.40;28.42;99586.66;5056857;28;40604;-80
2023/05/04 08:44:59;;;;;;;5.53;5.03;;;;;;;29.25;27.88;99575.75;5090257;28;43181;-80
2023/05/04 08:47:28;;;;;;;6.83;5.50;;;;;;;30.49;26.85;99584.84;5074040;28;41019;-77
2023/05/04 08:49:56;;;;;;;5.83;5.23;;;;;;;31.34;26.09;99584.97;5057098;28;39295;-78
2023/05/04 08:52:26;;;;;;;5.63;5.23;;;;;;;31.97;24.36;99595.41;5074012;28;41664;-79
2023/05/04 08:54:55;;;;;;;5.40;4.83;;;;;;;32.10;25.15;99584.38;5056749;28;42142;-79
2023/05/04 08:57:24;;;;;;;6.00;5.40;;;;;;;31.89;24.95;99592.91;5073995;28;42456;-79
2023/05/04 08:59:53;;;;;;;6.87;5.60;;;;;;;31.34;24.99;99582.22;5074019;28;39262;-79
2023/05/04 09:02:24;;;;;;;9.27;6.30;;;;;;;30.56;25.18;99572.03;5074237;28;41819;-79
2023/05/04 09:04:53;;;;;;;5.47;4.97;;;;;;;30.36;26.41;99563.78;5071478;28;42755;-80
2023/05/04 09:07:22;;;;;;;7.27;5.70;;;;;;;30.98;25.66;99562.63;5073604;28;43030;-79
2023/05/04 09:09:50;;;;;;;7.13;6.23;;;;;;;31.15;25.03;99563.09;5056613;28;41335;-81
2023/05/04 09:12:19;;;;;;;5.68;5.18;;;;;;;31.00;25.90;99561.38;5073936;28;42732;-79
2023/05/04 09:14:47;;;;;;;5.97;5.40;;;;;;;30.88;25.40;99570.41;5073661;28;42503;-79
2023/05/04 09:17:24;;;;;;;5.73;4.67;;;;;;;31.86;25.18;99561.28;5056519;28;42464;-79
2023/05/04 09:19:59;;;;;;;7.00;5.95;;;;;;;33.56;23.01;99574.13;5057122;28;38687;-79
2023/05/04 09:22:29;;;;;;;5.03;4.55;;;;;;;34.65;22.39;99569.63;5070945;28;41533;-78
2023/05/04 09:25:07;;;;;;;6.40;5.30;;;;;;;35.51;20.59;99567.16;5057517;28;20223;-79
2023/05/04 09:27:34;;;;;;;4.90;4.40;;;;;;;35.86;21.25;99545.09;5056430;28;41636;-79
2023/05/04 09:30:02;;;;;;;4.93;4.53;;;;;;;35.94;21.31;99555.75;5056103;28;40108;-80
2023/05/04 09:32:30;;;;;;;6.13;5.45;;;;;;;35.23;20.78;99562.38;5091320;28;42610;-79
2023/05/04 09:35:00;;;;;;;5.22;4.40;;;;;;;34.52;21.16;99552.25;5091053;28;42527;-79
2023/05/04 09:37:28;;;;;;;5.35;4.85;;;;;;;34.29;21.61;99518.31;5073101;28;40771;-79
2023/05/04 09:39:58;;;;;;;5.47;4.97;;;;;;;34.29;21.90;99535.66;5056426;28;38496;-79
2023/05/04 09:42:27;;;;;;;6.25;4.65;;;;;;;34.20;22.53;99528.78;5091259;28;41513;-80
2023/05/04 09:45:00;;;;;;;6.03;5.50;;;;;;;34.06;22.00;99535.53;5090951;28;43046;-80
2023/05/04 09:47:35;;;;;;;5.20;4.80;;;;;;;34.89;21.40;99527.34;5091086;28;43216;-79
2023/05/04 09:50:15;;;;;;;5.22;4.82;;;;;;;35.75;20.29;99528.59;5056197;28;39038;-79
2023/05/04 09:52:44;;;;;;;7.28;6.05;;;;;;;36.14;20.52;99510.38;5056392;28;40594;-79
2023/05/04 09:55:13;;;;;;;4.72;4.22;;;;;;;36.11;19.77;99521.88;5073090;28;42926;-79
2023/05/04 09:57:43;;;;;;;4.90;4.40;;;;;;;35.68;20.88;99501.13;5056195;28;41611;-79
2023/05/04 10:00:12;;;;;;;5.53;4.90;;;;;;;34.81;21.31;99505.69;5072696;28;39830;-79
2023/05/04 10:02:41;;;;;;;5.57;4.90;;;;;;;33.97;21.98;99501.19;5090826;28;42975;-79
2023/05/04 10:05:10;;;;;;;6.13;4.33;;;;;;;33.69;22.25;99497.06;5072318;28;41723;-79
2023/05/04 10:07:41;;;;;;;6.07;5.47;;;;;;;33.30;21.79;99494.75;5072554;28;41131;-78
2023/05/04 10:10:11;;;;;;;5.00;4.60;;;;;;;32.88;22.26;99486.28;5055757;28;39365;-79
2023/05/04 10:12:40;;;;;;;5.50;4.90;;;;;;;32.80;23.03;99470.06;5055828;28;40852;-78
2023/05/04 10:15:08;;;;;;;5.87;4.50;;;;;;;32.72;23.40;99470.38;5072189;28;42064;-79
2023/05/04 10:17:50;;;;;;;4.47;4.03;;;;;;;32.73;23.00;99466.56;5089766;28;43253;-79
2023/05/04 10:20:32;;;;;;;4.67;4.27;;;;;;;32.96;22.72;99475.00;5070734;28;40703;-79
2023/05/04 10:23:29;;;;;;;5.50;4.87;;;;;;;33.25;22.74;99461.66;5072549;28;40711;-80
2023/05/04 10:26:13;;;;;;;4.70;4.33;;;;;;;33.34;22.24;99471.28;5055178;28;43120;-80
2023/05/04 10:28:53;;;;;;;5.23;4.50;;;;;;;33.05;22.62;99468.16;5072184;28;41935;-78
2023/05/04 10:31:21;;;;;;;5.10;4.70;;;;;;;32.62;21.83;99478.22;5055838;28;39130;-80
2023/05/04 10:33:49;;;;;;;4.90;4.50;;;;;;;32.30;22.65;99467.28;5055595;28;41879;-79
2023/05/04 10:36:17;;;;;;;7.23;4.63;;;;;;;32.74;24.00;99454.53;5072426;28;42432;-80
2023/05/04 10:38:46;;;;;;;5.13;4.63;;;;;;;32.89;23.71;99452.25;5055390;28;41293;-79
2023/05/04 10:41:15;;;;;;;6.37;4.53;;;;;;;32.67;23.16;99427.09;5071990;28;40221;-78
2023/05/04 10:43:47;;;;;;;4.83;4.33;;;;;;;32.96;23.38;99435.75;5055624;28;40960;-79
2023/05/04 10:46:22;;;;;;;4.37;4.00;;;;;;;33.25;24.84;99435.03;5071939;28;43694;-79
2023/05/04 10:48:51;;;;;;;4.93;4.50;;;;;;;33.49;22.59;99447.84;5054829;28;41378;-79
2023/05/04 10:51:19;;;;;;;5.83;4.60;;;;;;;33.62;22.96;99430.38;5071839;28;40732;-80
2023/05/04 10:53:49;;;;;;;6.90;4.47;;;;;;;33.98;22.96;99434.16;5090234;28;43240;-80
2023/05/04 10:56:21;;;;;;;5.97;5.37;;;;;;;34.07;22.27;99421.75;5071856;28;41939;-79
2023/05/04 10:58:49;;;;;;;5.77;5.27;;;;;;;34.27;22.21;99444.28;5090585;28;42188;-79
2023/05/04 11:01:17;;;;;;;4.83;4.43;;;;;;;34.44;23.80;99406.78;5075355;28;38984;-79
2023/05/04 11:03:45;;;;;;;4.90;4.43;;;;;;;34.54;21.13;99434.56;5075150;28;43514;-80
2023/05/04 11:06:18;;;;;;;5.40;4.90;;;;;;;34.48;21.48;99424.50;5093375;28;42983;-81
2023/05/04 11:08:49;;;;;;;7.07;5.00;;;;;;;34.62;22.12;99424.28;5093415;28;42281;-80
2023/05/04 11:11:17;;;;;;;4.72;4.22;;;;;;;35.26;20.89;99424.19;5058225;28;39627;-79
2023/05/04 11:13:46;;;;;;;4.18;3.65;;;;;;;36.65;20.13;99424.69;5058373;28;40799;-79
2023/05/04 11:16:14;;;;;;;4.65;4.25;;;;;;;37.79;18.67;99429.66;5074721;28;42936;-80
2023/05/04 11:18:41;;;;;;;7.85;4.55;;;;;;;38.12;17.46;99441.66;5058598;28;41687;-79
2023/05/04 11:21:09;;;;;;;5.40;4.78;;;;;;;38.01;17.46;99411.09;5058108;28;39852;-80
2023/05/04 11:23:38;;;;;;;4.60;4.20;;;;;;;37.36;18.02;99422.19;5058531;28;40771;-80
2023/05/04 11:26:08;;;;;;;5.32;4.82;;;;;;;36.58;19.05;99418.50;5074845;28;42944;-80
2023/05/04 11:28:38;;;;;;;4.95;4.50;;;;;;;36.45;18.72;99421.59;5075244;28;42003;-79
2023/05/04 11:31:16;;;;;;;4.93;4.43;;;;;;;36.49;20.46;99397.91;5058092;28;39000;-80
2023/05/04 11:33:47;;;;;;;4.70;4.20;;;;;;;36.35;19.48;99391.91;5071981;28;42031;-79
2023/05/04 11:36:15;;;;;;;4.82;4.43;;;;;;;36.24;20.44;99394.72;5074546;28;42737;-80
2023/05/04 11:38:44;;;;;;;5.72;5.13;;;;;;;35.86;20.05;99382.44;5092892;28;43231;-79
2023/05/04 11:41:13;;;;;;;5.35;4.78;;;;;;;36.11;19.75;99395.03;5092796;28;40858;-80
2023/05/04 11:43:43;;;;;;;6.65;4.40;;;;;;;36.12;19.40;99382.91;5057662;28;41123;-80
2023/05/04 11:46:12;;;;;;;4.70;4.30;;;;;;;36.10;19.54;99393.38;5074450;28;42109;-80
2023/05/04 11:48:41;;;;;;;4.88;4.15;;;;;;;36.12;21.03;99372.72;5092734;28;42476;-82